sensor_id;sensor_type;location;lat;lon;timestamp;P1;durP1;ratioP1;P2;durP2;ratioP2
61473;SDS011;53694;49.784;30.150;2023-06-22T00:00:09;17.75;;;13.23;;
61473;SDS011;53694;49.784;30.150;2023-06-22T00:01:11;18.23;;;13.64;;
61473;SDS011;53694;49.784;30.150;2023-06-22T00:02:12;20.49;;;14.56;;
61473;SDS011;53694;49.784;30.150;2023-06-22T00:03:14;16.11;;;13.14;;
61473;SDS011;53694;49.784;30.150;2023-06-22T00:04:15;16.62;;;12.34;;
61473;SDS011;53694;49.784;30.150;2023-06-22T00:05:17;16.91;;;11.83;;
61473;SDS011;53694;49.784;30.150;2023-06-22T00:06:19;14.82;;;11.29;;
61473;SDS011;53694;49.784;30.150;2023-06-22T00:07:20;19.81;;;11.79;;
61473;SDS011;53694;49.784;30.150;2023-06-22T00:08:22;14.99;;;11.44;;
61473;SDS011;53694;49.784;30.150;2023-06-22T00:09:23;14.61;;;11.36;;
61473;SDS011;53694;49.784;30.150;2023-06-22T00:10:25;15.36;;;11.01;;
61473;SDS011;53694;49.784;30.150;2023-06-22T00:11:26;15.38;;;11.57;;
61473;SDS011;53694;49.784;30.150;2023-06-22T00:12:28;15.30;;;12.16;;
61473;SDS011;53694;49.784;30.150;2023-06-22T00:13:29;14.17;;;11.55;;
61473;SDS011;53694;49.784;30.150;2023-06-22T00:14:31;13.14;;;10.29;;
61473;SDS011;53694;49.784;30.150;2023-06-22T00:15:32;15.80;;;12.24;;
61473;SDS011;53694;49.784;30.150;2023-06-22T00:16:34;15.73;;;12.24;;
61473;SDS011;53694;49.784;30.150;2023-06-22T00:17:36;18.57;;;13.16;;
61473;SDS011;53694;49.784;30.150;2023-06-22T00:18:37;19.42;;;13.41;;
61473;SDS011;53694;49.784;30.150;2023-06-22T00:19:39;16.46;;;12.71;;
61473;SDS011;53694;49.784;30.150;2023-06-22T00:20:41;17.07;;;13.33;;
61473;SDS011;53694;49.784;30.150;2023-06-22T00:21:43;18.26;;;14.18;;
61473;SDS011;53694;49.784;30.150;2023-06-22T00:22:44;17.76;;;12.35;;
61473;SDS011;53694;49.784;30.150;2023-06-22T00:23:46;16.47;;;12.66;;
61473;SDS011;53694;49.784;30.150;2023-06-22T00:24:47;14.28;;;11.53;;
61473;SDS011;53694;49.784;30.150;2023-06-22T00:25:49;14.19;;;11.36;;
61473;SDS011;53694;49.784;30.150;2023-06-22T00:26:51;16.37;;;12.42;;
61473;SDS011;53694;49.784;30.150;2023-06-22T00:27:52;16.19;;;11.65;;
61473;SDS011;53694;49.784;30.150;2023-06-22T00:28:54;16.02;;;11.87;;
61473;SDS011;53694;49.784;30.150;2023-06-22T00:29:55;16.83;;;11.79;;
61473;SDS011;53694;49.784;30.150;2023-06-22T00:30:57;18.71;;;13.11;;
61473;SDS011;53694;49.784;30.150;2023-06-22T00:31:58;19.05;;;12.16;;
61473;SDS011;53694;49.784;30.150;2023-06-22T00:33:00;16.27;;;11.53;;
61473;SDS011;53694;49.784;30.150;2023-06-22T00:34:01;20.49;;;12.15;;
61473;SDS011;53694;49.784;30.150;2023-06-22T00:35:03;18.15;;;12.28;;
61473;SDS011;53694;49.784;30.150;2023-06-22T00:36:05;16.65;;;12.17;;
61473;SDS011;53694;49.784;30.150;2023-06-22T00:37:07;16.56;;;12.13;;
61473;SDS011;53694;49.784;30.150;2023-06-22T00:38:08;17.66;;;13.06;;
61473;SDS011;53694;49.784;30.150;2023-06-22T00:39:10;17.88;;;13.62;;
61473;SDS011;53694;49.784;30.150;2023-06-22T00:40:12;17.70;;;13.51;;
61473;SDS011;53694;49.784;30.150;2023-06-22T00:41:13;16.33;;;13.24;;
61473;SDS011;53694;49.784;30.150;2023-06-22T00:42:15;15.96;;;12.36;;
61473;SDS011;53694;49.784;30.150;2023-06-22T00:43:16;18.51;;;11.62;;
61473;SDS011;53694;49.784;30.150;2023-06-22T00:44:18;16.54;;;11.98;;
61473;SDS011;53694;49.784;30.150;2023-06-22T00:45:19;15.54;;;11.21;;
61473;SDS011;53694;49.784;30.150;2023-06-22T00:46:21;16.15;;;11.82;;
61473;SDS011;53694;49.784;30.150;2023-06-22T00:47:24;15.46;;;11.32;;
61473;SDS011;53694;49.784;30.150;2023-06-22T00:48:25;14.23;;;10.89;;
61473;SDS011;53694;49.784;30.150;2023-06-22T00:49:27;17.93;;;11.89;;
61473;SDS011;53694;49.784;30.150;2023-06-22T00:50:30;16.10;;;11.09;;
61473;SDS011;53694;49.784;30.150;2023-06-22T00:51:34;15.41;;;10.82;;
61473;SDS011;53694;49.784;30.150;2023-06-22T00:52:35;17.07;;;11.75;;
61473;SDS011;53694;49.784;30.150;2023-06-22T00:53:37;15.60;;;12.17;;
61473;SDS011;53694;49.784;30.150;2023-06-22T00:54:43;18.48;;;12.85;;
61473;SDS011;53694;49.784;30.150;2023-06-22T00:55:42;16.29;;;12.66;;
61473;SDS011;53694;49.784;30.150;2023-06-22T00:56:45;17.74;;;13.38;;
61473;SDS011;53694;49.784;30.150;2023-06-22T00:57:47;19.53;;;13.40;;
61473;SDS011;53694;49.784;30.150;2023-06-22T00:58:49;18.97;;;12.97;;
61473;SDS011;53694;49.784;30.150;2023-06-22T00:59:51;18.55;;;14.12;;
61473;SDS011;53694;49.784;30.150;2023-06-22T01:00:52;17.66;;;13.61;;
61473;SDS011;53694;49.784;30.150;2023-06-22T01:01:54;18.68;;;14.86;;
61473;SDS011;53694;49.784;30.150;2023-06-22T01:02:56;17.35;;;12.94;;
61473;SDS011;53694;49.784;30.150;2023-06-22T01:03:57;18.24;;;11.91;;
61473;SDS011;53694;49.784;30.150;2023-06-22T01:04:59;14.99;;;11.24;;
61473;SDS011;53694;49.784;30.150;2023-06-22T01:06:07;13.83;;;10.74;;
61473;SDS011;53694;49.784;30.150;2023-06-22T01:07:26;17.83;;;10.88;;
61473;SDS011;53694;49.784;30.150;2023-06-22T01:09:46;15.23;;;10.84;;
61473;SDS011;53694;49.784;30.150;2023-06-22T01:10:55;15.44;;;11.23;;
61473;SDS011;53694;49.784;30.150;2023-06-22T01:12:05;15.73;;;10.98;;
61473;SDS011;53694;49.784;30.150;2023-06-22T01:15:47;15.31;;;10.24;;
61473;SDS011;53694;49.784;30.150;2023-06-22T01:16:51;14.49;;;11.54;;
61473;SDS011;53694;49.784;30.150;2023-06-22T01:17:55;15.19;;;11.26;;
61473;SDS011;53694;49.784;30.150;2023-06-22T01:19:00;14.99;;;11.44;;
61473;SDS011;53694;49.784;30.150;2023-06-22T01:20:04;15.91;;;12.12;;
61473;SDS011;53694;49.784;30.150;2023-06-22T01:21:11;17.13;;;12.06;;
61473;SDS011;53694;49.784;30.150;2023-06-22T01:22:15;15.32;;;12.17;;
61473;SDS011;53694;49.784;30.150;2023-06-22T01:23:26;15.31;;;11.84;;
61473;SDS011;53694;49.784;30.150;2023-06-22T01:26:06;15.38;;;12.12;;
61473;SDS011;53694;49.784;30.150;2023-06-22T01:28:32;14.73;;;11.26;;
61473;SDS011;53694;49.784;30.150;2023-06-22T01:29:51;14.33;;;10.01;;
61473;SDS011;53694;49.784;30.150;2023-06-22T01:30:55;13.82;;;9.94;;
61473;SDS011;53694;49.784;30.150;2023-06-22T01:31:58;14.74;;;10.26;;
61473;SDS011;53694;49.784;30.150;2023-06-22T01:33:01;12.83;;;10.19;;
61473;SDS011;53694;49.784;30.150;2023-06-22T01:34:06;14.25;;;10.14;;
61473;SDS011;53694;49.784;30.150;2023-06-22T01:35:09;12.68;;;9.84;;
61473;SDS011;53694;49.784;30.150;2023-06-22T01:36:12;16.56;;;10.26;;
61473;SDS011;53694;49.784;30.150;2023-06-22T01:37:15;14.89;;;10.43;;
61473;SDS011;53694;49.784;30.150;2023-06-22T01:38:17;14.87;;;11.18;;
61473;SDS011;53694;49.784;30.150;2023-06-22T01:39:19;13.81;;;9.85;;
61473;SDS011;53694;49.784;30.150;2023-06-22T01:40:22;13.28;;;9.95;;
61473;SDS011;53694;49.784;30.150;2023-06-22T01:41:26;15.22;;;11.08;;
61473;SDS011;53694;49.784;30.150;2023-06-22T01:42:28;16.03;;;10.04;;
61473;SDS011;53694;49.784;30.150;2023-06-22T01:43:30;14.49;;;11.17;;
61473;SDS011;53694;49.784;30.150;2023-06-22T01:44:32;18.74;;;11.61;;
61473;SDS011;53694;49.784;30.150;2023-06-22T01:45:35;14.25;;;11.05;;
61473;SDS011;53694;49.784;30.150;2023-06-22T01:46:36;17.96;;;11.47;;
61473;SDS011;53694;49.784;30.150;2023-06-22T01:47:39;18.66;;;12.23;;
61473;SDS011;53694;49.784;30.150;2023-06-22T01:48:42;16.44;;;11.76;;
61473;SDS011;53694;49.784;30.150;2023-06-22T01:49:43;14.09;;;11.09;;
61473;SDS011;53694;49.784;30.150;2023-06-22T01:50:46;15.39;;;10.97;;
61473;SDS011;53694;49.784;30.150;2023-06-22T01:51:48;14.77;;;11.17;;
61473;SDS011;53694;49.784;30.150;2023-06-22T01:52:49;13.96;;;10.14;;
61473;SDS011;53694;49.784;30.150;2023-06-22T01:53:51;12.74;;;10.06;;
61473;SDS011;53694;49.784;30.150;2023-06-22T01:54:52;14.24;;;10.96;;
61473;SDS011;53694;49.784;30.150;2023-06-22T01:55:54;14.71;;;10.19;;
61473;SDS011;53694;49.784;30.150;2023-06-22T01:56:57;14.07;;;9.93;;
61473;SDS011;53694;49.784;30.150;2023-06-22T01:57:59;13.83;;;10.13;;
61473;SDS011;53694;49.784;30.150;2023-06-22T01:59:04;13.71;;;10.53;;
61473;SDS011;53694;49.784;30.150;2023-06-22T02:00:12;13.21;;;10.02;;
61473;SDS011;53694;49.784;30.150;2023-06-22T02:01:20;14.46;;;10.38;;
61473;SDS011;53694;49.784;30.150;2023-06-22T02:02:25;14.32;;;10.06;;
61473;SDS011;53694;49.784;30.150;2023-06-22T02:03:31;12.64;;;9.87;;
61473;SDS011;53694;49.784;30.150;2023-06-22T02:04:42;16.66;;;11.79;;
61473;SDS011;53694;49.784;30.150;2023-06-22T02:05:56;15.28;;;11.39;;
61473;SDS011;53694;49.784;30.150;2023-06-22T02:07:00;15.39;;;11.46;;
61473;SDS011;53694;49.784;30.150;2023-06-22T02:08:09;16.21;;;11.87;;
61473;SDS011;53694;49.784;30.150;2023-06-22T02:09:14;18.71;;;12.68;;
61473;SDS011;53694;49.784;30.150;2023-06-22T02:10:19;18.36;;;13.87;;
61473;SDS011;53694;49.784;30.150;2023-06-22T02:11:22;15.39;;;11.31;;
61473;SDS011;53694;49.784;30.150;2023-06-22T02:12:26;13.02;;;10.94;;
61473;SDS011;53694;49.784;30.150;2023-06-22T02:13:29;16.78;;;11.95;;
61473;SDS011;53694;49.784;30.150;2023-06-22T02:14:31;14.24;;;11.41;;
61473;SDS011;53694;49.784;30.150;2023-06-22T02:15:35;17.59;;;11.78;;
61473;SDS011;53694;49.784;30.150;2023-06-22T02:16:37;15.23;;;11.35;;
61473;SDS011;53694;49.784;30.150;2023-06-22T02:17:39;14.79;;;10.99;;
61473;SDS011;53694;49.784;30.150;2023-06-22T02:18:47;13.97;;;10.57;;
61473;SDS011;53694;49.784;30.150;2023-06-22T02:19:50;14.77;;;10.66;;
61473;SDS011;53694;49.784;30.150;2023-06-22T02:20:51;14.59;;;10.08;;
61473;SDS011;53694;49.784;30.150;2023-06-22T02:21:53;16.56;;;12.24;;
61473;SDS011;53694;49.784;30.150;2023-06-22T02:22:54;17.24;;;12.88;;
61473;SDS011;53694;49.784;30.150;2023-06-22T02:23:56;17.87;;;13.56;;
61473;SDS011;53694;49.784;30.150;2023-06-22T02:24:57;16.58;;;12.96;;
61473;SDS011;53694;49.784;30.150;2023-06-22T02:25:59;16.85;;;12.76;;
61473;SDS011;53694;49.784;30.150;2023-06-22T02:27:01;17.16;;;12.53;;
61473;SDS011;53694;49.784;30.150;2023-06-22T02:28:03;16.79;;;12.93;;
61473;SDS011;53694;49.784;30.150;2023-06-22T02:29:05;18.35;;;13.34;;
61473;SDS011;53694;49.784;30.150;2023-06-22T02:30:07;18.31;;;14.06;;
61473;SDS011;53694;49.784;30.150;2023-06-22T02:31:09;17.87;;;13.75;;
61473;SDS011;53694;49.784;30.150;2023-06-22T02:32:11;22.34;;;15.09;;
61473;SDS011;53694;49.784;30.150;2023-06-22T02:33:12;19.81;;;15.06;;
61473;SDS011;53694;49.784;30.150;2023-06-22T02:34:14;17.99;;;13.64;;
61473;SDS011;53694;49.784;30.150;2023-06-22T02:35:15;15.04;;;12.12;;
61473;SDS011;53694;49.784;30.150;2023-06-22T02:36:17;15.29;;;11.02;;
61473;SDS011;53694;49.784;30.150;2023-06-22T02:37:19;16.62;;;11.31;;
61473;SDS011;53694;49.784;30.150;2023-06-22T02:38:20;18.63;;;12.20;;
61473;SDS011;53694;49.784;30.150;2023-06-22T02:39:23;14.14;;;10.18;;
61473;SDS011;53694;49.784;30.150;2023-06-22T02:40:26;16.25;;;10.61;;
61473;SDS011;53694;49.784;30.150;2023-06-22T02:41:28;15.36;;;10.31;;
61473;SDS011;53694;49.784;30.150;2023-06-22T02:42:29;15.43;;;9.45;;
61473;SDS011;53694;49.784;30.150;2023-06-22T02:43:31;15.39;;;10.47;;
61473;SDS011;53694;49.784;30.150;2023-06-22T02:44:32;13.69;;;10.61;;
61473;SDS011;53694;49.784;30.150;2023-06-22T02:45:34;14.06;;;10.46;;
61473;SDS011;53694;49.784;30.150;2023-06-22T02:46:35;14.04;;;10.75;;
61473;SDS011;53694;49.784;30.150;2023-06-22T02:47:37;14.15;;;10.10;;
61473;SDS011;53694;49.784;30.150;2023-06-22T02:48:39;12.13;;;9.48;;
61473;SDS011;53694;49.784;30.150;2023-06-22T02:49:41;13.59;;;10.18;;
61473;SDS011;53694;49.784;30.150;2023-06-22T02:50:43;14.23;;;11.03;;
61473;SDS011;53694;49.784;30.150;2023-06-22T02:51:45;14.74;;;11.10;;
61473;SDS011;53694;49.784;30.150;2023-06-22T02:52:48;15.65;;;12.27;;
61473;SDS011;53694;49.784;30.150;2023-06-22T02:53:49;18.64;;;13.79;;
61473;SDS011;53694;49.784;30.150;2023-06-22T02:54:51;17.04;;;13.04;;
61473;SDS011;53694;49.784;30.150;2023-06-22T02:55:52;20.06;;;12.98;;
61473;SDS011;53694;49.784;30.150;2023-06-22T02:56:54;18.69;;;12.54;;
61473;SDS011;53694;49.784;30.150;2023-06-22T02:57:55;17.06;;;11.90;;
61473;SDS011;53694;49.784;30.150;2023-06-22T02:58:57;14.73;;;11.38;;
61473;SDS011;53694;49.784;30.150;2023-06-22T02:59:59;14.49;;;11.40;;
61473;SDS011;53694;49.784;30.150;2023-06-22T03:01:00;15.69;;;12.16;;
61473;SDS011;53694;49.784;30.150;2023-06-22T03:02:02;15.06;;;10.91;;
61473;SDS011;53694;49.784;30.150;2023-06-22T03:03:04;16.12;;;11.84;;
61473;SDS011;53694;49.784;30.150;2023-06-22T03:04:06;16.11;;;12.04;;
61473;SDS011;53694;49.784;30.150;2023-06-22T03:05:08;16.20;;;11.98;;
61473;SDS011;53694;49.784;30.150;2023-06-22T03:06:09;15.87;;;11.54;;
61473;SDS011;53694;49.784;30.150;2023-06-22T03:07:11;17.39;;;11.91;;
61473;SDS011;53694;49.784;30.150;2023-06-22T03:08:12;15.47;;;12.54;;
61473;SDS011;53694;49.784;30.150;2023-06-22T03:09:14;14.84;;;10.97;;
61473;SDS011;53694;49.784;30.150;2023-06-22T03:10:15;14.66;;;10.94;;
61473;SDS011;53694;49.784;30.150;2023-06-22T03:11:17;17.98;;;11.86;;
61473;SDS011;53694;49.784;30.150;2023-06-22T03:12:19;17.34;;;12.96;;
61473;SDS011;53694;49.784;30.150;2023-06-22T03:13:20;21.03;;;13.58;;
61473;SDS011;53694;49.784;30.150;2023-06-22T03:14:22;19.27;;;13.72;;
61473;SDS011;53694;49.784;30.150;2023-06-22T03:15:23;20.77;;;14.35;;
61473;SDS011;53694;49.784;30.150;2023-06-22T03:16:25;21.30;;;14.56;;
61473;SDS011;53694;49.784;30.150;2023-06-22T03:17:26;21.35;;;14.72;;
61473;SDS011;53694;49.784;30.150;2023-06-22T03:18:28;19.64;;;13.92;;
61473;SDS011;53694;49.784;30.150;2023-06-22T03:19:29;18.38;;;13.29;;
61473;SDS011;53694;49.784;30.150;2023-06-22T03:20:31;17.15;;;11.58;;
61473;SDS011;53694;49.784;30.150;2023-06-22T03:21:33;17.89;;;12.64;;
61473;SDS011;53694;49.784;30.150;2023-06-22T03:22:35;16.16;;;12.01;;
61473;SDS011;53694;49.784;30.150;2023-06-22T03:23:36;17.08;;;11.81;;
61473;SDS011;53694;49.784;30.150;2023-06-22T03:24:38;15.36;;;11.85;;
61473;SDS011;53694;49.784;30.150;2023-06-22T03:25:40;19.89;;;12.11;;
61473;SDS011;53694;49.784;30.150;2023-06-22T03:26:42;16.88;;;12.29;;
61473;SDS011;53694;49.784;30.150;2023-06-22T03:27:43;15.94;;;11.57;;
61473;SDS011;53694;49.784;30.150;2023-06-22T03:28:45;15.77;;;12.31;;
61473;SDS011;53694;49.784;30.150;2023-06-22T03:29:47;14.61;;;11.05;;
61473;SDS011;53694;49.784;30.150;2023-06-22T03:30:49;17.76;;;12.76;;
61473;SDS011;53694;49.784;30.150;2023-06-22T03:31:50;19.72;;;12.91;;
61473;SDS011;53694;49.784;30.150;2023-06-22T03:32:52;24.64;;;13.87;;
61473;SDS011;53694;49.784;30.150;2023-06-22T03:33:53;20.19;;;14.14;;
61473;SDS011;53694;49.784;30.150;2023-06-22T03:34:54;18.72;;;14.21;;
61473;SDS011;53694;49.784;30.150;2023-06-22T03:35:56;26.79;;;14.83;;
61473;SDS011;53694;49.784;30.150;2023-06-22T03:36:57;24.47;;;15.42;;
61473;SDS011;53694;49.784;30.150;2023-06-22T03:37:59;18.59;;;13.45;;
61473;SDS011;53694;49.784;30.150;2023-06-22T03:39:00;16.64;;;13.73;;
61473;SDS011;53694;49.784;30.150;2023-06-22T03:40:02;17.91;;;14.22;;
61473;SDS011;53694;49.784;30.150;2023-06-22T03:41:04;18.79;;;13.25;;
61473;SDS011;53694;49.784;30.150;2023-06-22T03:42:06;23.02;;;13.79;;
61473;SDS011;53694;49.784;30.150;2023-06-22T03:43:07;19.89;;;14.51;;
61473;SDS011;53694;49.784;30.150;2023-06-22T03:44:09;21.44;;;13.36;;
61473;SDS011;53694;49.784;30.150;2023-06-22T03:45:11;22.31;;;12.72;;
61473;SDS011;53694;49.784;30.150;2023-06-22T03:46:13;21.78;;;12.55;;
61473;SDS011;53694;49.784;30.150;2023-06-22T03:47:14;17.81;;;12.54;;
61473;SDS011;53694;49.784;30.150;2023-06-22T03:48:16;18.89;;;12.94;;
61473;SDS011;53694;49.784;30.150;2023-06-22T03:49:17;18.67;;;12.74;;
61473;SDS011;53694;49.784;30.150;2023-06-22T03:50:19;18.66;;;13.04;;
61473;SDS011;53694;49.784;30.150;2023-06-22T03:51:21;19.30;;;12.81;;
61473;SDS011;53694;49.784;30.150;2023-06-22T03:52:22;19.99;;;13.54;;
61473;SDS011;53694;49.784;30.150;2023-06-22T03:53:24;18.29;;;13.64;;
61473;SDS011;53694;49.784;30.150;2023-06-22T03:54:25;19.64;;;14.37;;
61473;SDS011;53694;49.784;30.150;2023-06-22T03:55:27;20.73;;;15.20;;
61473;SDS011;53694;49.784;30.150;2023-06-22T03:56:28;19.56;;;15.00;;
61473;SDS011;53694;49.784;30.150;2023-06-22T03:57:30;19.24;;;15.40;;
61473;SDS011;53694;49.784;30.150;2023-06-22T03:58:31;22.51;;;16.36;;
61473;SDS011;53694;49.784;30.150;2023-06-22T03:59:33;22.06;;;17.24;;
61473;SDS011;53694;49.784;30.150;2023-06-22T04:00:34;24.88;;;17.96;;
61473;SDS011;53694;49.784;30.150;2023-06-22T04:01:36;21.41;;;17.69;;
61473;SDS011;53694;49.784;30.150;2023-06-22T04:02:37;22.77;;;18.55;;
61473;SDS011;53694;49.784;30.150;2023-06-22T04:03:40;23.77;;;17.83;;
61473;SDS011;53694;49.784;30.150;2023-06-22T04:04:42;21.25;;;16.24;;
61473;SDS011;53694;49.784;30.150;2023-06-22T04:05:43;21.20;;;16.26;;
61473;SDS011;53694;49.784;30.150;2023-06-22T04:06:46;17.91;;;14.73;;
61473;SDS011;53694;49.784;30.150;2023-06-22T04:07:47;22.10;;;15.41;;
61473;SDS011;53694;49.784;30.150;2023-06-22T04:08:49;18.71;;;14.05;;
61473;SDS011;53694;49.784;30.150;2023-06-22T04:09:50;16.81;;;13.63;;
61473;SDS011;53694;49.784;30.150;2023-06-22T04:10:52;22.36;;;14.34;;
61473;SDS011;53694;49.784;30.150;2023-06-22T04:11:54;17.56;;;12.79;;
61473;SDS011;53694;49.784;30.150;2023-06-22T04:12:55;21.22;;;14.03;;
61473;SDS011;53694;49.784;30.150;2023-06-22T04:13:57;20.72;;;13.40;;
61473;SDS011;53694;49.784;30.150;2023-06-22T04:14:58;17.24;;;13.67;;
61473;SDS011;53694;49.784;30.150;2023-06-22T04:16:00;16.85;;;13.54;;
61473;SDS011;53694;49.784;30.150;2023-06-22T04:17:01;20.44;;;14.22;;
61473;SDS011;53694;49.784;30.150;2023-06-22T04:18:03;22.01;;;14.66;;
61473;SDS011;53694;49.784;30.150;2023-06-22T04:19:05;20.14;;;13.92;;
61473;SDS011;53694;49.784;30.150;2023-06-22T04:20:07;24.22;;;16.40;;
61473;SDS011;53694;49.784;30.150;2023-06-22T04:21:09;22.85;;;17.34;;
61473;SDS011;53694;49.784;30.150;2023-06-22T04:22:11;27.84;;;17.24;;
61473;SDS011;53694;49.784;30.150;2023-06-22T04:23:13;29.08;;;17.38;;
61473;SDS011;53694;49.784;30.150;2023-06-22T04:24:14;25.67;;;18.19;;
61473;SDS011;53694;49.784;30.150;2023-06-22T04:25:16;20.51;;;16.80;;
61473;SDS011;53694;49.784;30.150;2023-06-22T04:26:18;23.69;;;17.83;;
61473;SDS011;53694;49.784;30.150;2023-06-22T04:27:20;19.86;;;15.73;;
61473;SDS011;53694;49.784;30.150;2023-06-22T04:28:21;19.82;;;15.43;;
61473;SDS011;53694;49.784;30.150;2023-06-22T04:29:23;19.99;;;14.87;;
61473;SDS011;53694;49.784;30.150;2023-06-22T04:30:24;19.05;;;14.46;;
61473;SDS011;53694;49.784;30.150;2023-06-22T04:31:26;19.54;;;14.57;;
61473;SDS011;53694;49.784;30.150;2023-06-22T04:32:27;19.39;;;14.94;;
61473;SDS011;53694;49.784;30.150;2023-06-22T04:33:29;20.49;;;15.01;;
61473;SDS011;53694;49.784;30.150;2023-06-22T04:34:31;20.75;;;14.59;;
61473;SDS011;53694;49.784;30.150;2023-06-22T04:35:32;19.76;;;14.29;;
61473;SDS011;53694;49.784;30.150;2023-06-22T04:36:35;20.33;;;14.96;;
61473;SDS011;53694;49.784;30.150;2023-06-22T04:37:37;23.46;;;14.83;;
61473;SDS011;53694;49.784;30.150;2023-06-22T04:38:39;24.75;;;16.09;;
61473;SDS011;53694;49.784;30.150;2023-06-22T04:39:42;23.09;;;15.79;;
61473;SDS011;53694;49.784;30.150;2023-06-22T04:40:43;24.16;;;16.02;;
61473;SDS011;53694;49.784;30.150;2023-06-22T04:41:45;21.06;;;16.54;;
61473;SDS011;53694;49.784;30.150;2023-06-22T04:42:46;23.40;;;17.59;;
61473;SDS011;53694;49.784;30.150;2023-06-22T04:43:48;25.66;;;18.06;;
61473;SDS011;53694;49.784;30.150;2023-06-22T04:44:50;24.60;;;18.36;;
61473;SDS011;53694;49.784;30.150;2023-06-22T04:45:51;23.53;;;17.49;;
61473;SDS011;53694;49.784;30.150;2023-06-22T04:46:54;25.99;;;18.69;;
61473;SDS011;53694;49.784;30.150;2023-06-22T04:47:57;25.26;;;19.21;;
61473;SDS011;53694;49.784;30.150;2023-06-22T04:48:58;23.14;;;16.76;;
61473;SDS011;53694;49.784;30.150;2023-06-22T04:50:00;19.99;;;16.23;;
61473;SDS011;53694;49.784;30.150;2023-06-22T04:51:01;18.53;;;14.97;;
61473;SDS011;53694;49.784;30.150;2023-06-22T04:52:04;18.51;;;15.15;;
61473;SDS011;53694;49.784;30.150;2023-06-22T04:53:06;18.49;;;14.42;;
61473;SDS011;53694;49.784;30.150;2023-06-22T04:54:09;19.25;;;15.09;;
61473;SDS011;53694;49.784;30.150;2023-06-22T04:55:10;17.71;;;14.53;;
61473;SDS011;53694;49.784;30.150;2023-06-22T04:56:12;18.78;;;14.87;;
61473;SDS011;53694;49.784;30.150;2023-06-22T04:57:14;22.01;;;15.84;;
61473;SDS011;53694;49.784;30.150;2023-06-22T04:58:16;22.25;;;15.64;;
61473;SDS011;53694;49.784;30.150;2023-06-22T04:59:17;23.37;;;16.14;;
61473;SDS011;53694;49.784;30.150;2023-06-22T05:00:19;21.40;;;16.86;;
61473;SDS011;53694;49.784;30.150;2023-06-22T05:01:21;23.61;;;17.12;;
61473;SDS011;53694;49.784;30.150;2023-06-22T05:02:23;25.07;;;16.96;;
61473;SDS011;53694;49.784;30.150;2023-06-22T05:03:25;22.05;;;16.99;;
61473;SDS011;53694;49.784;30.150;2023-06-22T05:04:27;22.99;;;17.92;;
61473;SDS011;53694;49.784;30.150;2023-06-22T05:05:30;25.90;;;18.81;;
61473;SDS011;53694;49.784;30.150;2023-06-22T05:06:31;24.71;;;18.04;;
61473;SDS011;53694;49.784;30.150;2023-06-22T05:07:36;21.42;;;17.04;;
61473;SDS011;53694;49.784;30.150;2023-06-22T05:08:37;22.37;;;17.35;;
61473;SDS011;53694;49.784;30.150;2023-06-22T05:09:39;22.67;;;17.50;;
61473;SDS011;53694;49.784;30.150;2023-06-22T05:10:40;20.27;;;15.74;;
61473;SDS011;53694;49.784;30.150;2023-06-22T05:11:42;21.66;;;16.01;;
61473;SDS011;53694;49.784;30.150;2023-06-22T05:12:44;21.88;;;14.78;;
61473;SDS011;53694;49.784;30.150;2023-06-22T05:13:45;17.67;;;13.76;;
61473;SDS011;53694;49.784;30.150;2023-06-22T05:14:47;17.81;;;13.63;;
61473;SDS011;53694;49.784;30.150;2023-06-22T05:15:48;19.77;;;14.84;;
61473;SDS011;53694;49.784;30.150;2023-06-22T05:16:50;23.61;;;14.59;;
61473;SDS011;53694;49.784;30.150;2023-06-22T05:17:51;22.59;;;16.04;;
61473;SDS011;53694;49.784;30.150;2023-06-22T05:18:53;22.24;;;15.84;;
61473;SDS011;53694;49.784;30.150;2023-06-22T05:19:55;20.20;;;15.86;;
61473;SDS011;53694;49.784;30.150;2023-06-22T05:20:57;22.20;;;15.44;;
61473;SDS011;53694;49.784;30.150;2023-06-22T05:21:59;23.07;;;16.13;;
61473;SDS011;53694;49.784;30.150;2023-06-22T05:23:01;24.61;;;15.99;;
61473;SDS011;53694;49.784;30.150;2023-06-22T05:24:02;22.22;;;16.19;;
61473;SDS011;53694;49.784;30.150;2023-06-22T05:25:09;22.37;;;16.08;;
61473;SDS011;53694;49.784;30.150;2023-06-22T05:26:09;24.25;;;15.77;;
61473;SDS011;53694;49.784;30.150;2023-06-22T05:27:11;21.51;;;16.49;;
61473;SDS011;53694;49.784;30.150;2023-06-22T05:28:12;24.67;;;16.77;;
61473;SDS011;53694;49.784;30.150;2023-06-22T05:29:14;23.77;;;15.73;;
61473;SDS011;53694;49.784;30.150;2023-06-22T05:30:15;23.21;;;16.65;;
61473;SDS011;53694;49.784;30.150;2023-06-22T05:31:17;20.63;;;15.99;;
61473;SDS011;53694;49.784;30.150;2023-06-22T05:32:19;22.74;;;15.72;;
61473;SDS011;53694;49.784;30.150;2023-06-22T05:33:20;24.44;;;16.21;;
61473;SDS011;53694;49.784;30.150;2023-06-22T05:34:21;24.45;;;16.77;;
61473;SDS011;53694;49.784;30.150;2023-06-22T05:35:23;24.15;;;15.89;;
61473;SDS011;53694;49.784;30.150;2023-06-22T05:36:25;26.25;;;16.46;;
61473;SDS011;53694;49.784;30.150;2023-06-22T05:37:26;23.21;;;16.44;;
61473;SDS011;53694;49.784;30.150;2023-06-22T05:38:29;23.17;;;15.27;;
61473;SDS011;53694;49.784;30.150;2023-06-22T05:39:30;24.01;;;15.69;;
61473;SDS011;53694;49.784;30.150;2023-06-22T05:40:32;21.83;;;14.76;;
61473;SDS011;53694;49.784;30.150;2023-06-22T05:41:33;19.97;;;14.79;;
61473;SDS011;53694;49.784;30.150;2023-06-22T05:42:35;23.39;;;16.14;;
61473;SDS011;53694;49.784;30.150;2023-06-22T05:43:36;24.34;;;15.00;;
61473;SDS011;53694;49.784;30.150;2023-06-22T05:44:38;22.00;;;16.51;;
61473;SDS011;53694;49.784;30.150;2023-06-22T05:45:39;22.58;;;15.54;;
61473;SDS011;53694;49.784;30.150;2023-06-22T05:46:42;25.79;;;16.78;;
61473;SDS011;53694;49.784;30.150;2023-06-22T05:47:44;23.08;;;16.85;;
61473;SDS011;53694;49.784;30.150;2023-06-22T05:48:46;21.34;;;16.75;;
61473;SDS011;53694;49.784;30.150;2023-06-22T05:49:47;22.89;;;16.92;;
61473;SDS011;53694;49.784;30.150;2023-06-22T05:50:49;21.87;;;17.59;;
61473;SDS011;53694;49.784;30.150;2023-06-22T05:51:50;21.73;;;16.10;;
61473;SDS011;53694;49.784;30.150;2023-06-22T05:52:52;23.64;;;17.11;;
61473;SDS011;53694;49.784;30.150;2023-06-22T05:53:53;24.39;;;16.89;;
61473;SDS011;53694;49.784;30.150;2023-06-22T05:54:55;25.11;;;16.99;;
61473;SDS011;53694;49.784;30.150;2023-06-22T05:55:56;22.54;;;16.16;;
61473;SDS011;53694;49.784;30.150;2023-06-22T05:56:58;23.33;;;17.59;;
61473;SDS011;53694;49.784;30.150;2023-06-22T05:57:59;22.61;;;15.99;;
61473;SDS011;53694;49.784;30.150;2023-06-22T05:59:01;24.80;;;16.91;;
61473;SDS011;53694;49.784;30.150;2023-06-22T06:00:03;22.44;;;16.24;;
61473;SDS011;53694;49.784;30.150;2023-06-22T06:01:05;22.94;;;17.29;;
61473;SDS011;53694;49.784;30.150;2023-06-22T06:02:06;22.79;;;16.86;;
61473;SDS011;53694;49.784;30.150;2023-06-22T06:03:08;24.48;;;17.28;;
61473;SDS011;53694;49.784;30.150;2023-06-22T06:04:10;22.99;;;16.29;;
61473;SDS011;53694;49.784;30.150;2023-06-22T06:05:12;23.86;;;16.51;;